Flight Number: EUR1196 Duration: 3:00
Departure: Paris Charles-de-Gaulle (LFPG) at 03:00 Distance: 1138 Nm
Arrival: Athens Int'l (LGAV) at 06:00 Equipment: A330-200

Weather Information
Paris-Aeroport Charles De Gaulle, France (LFPG) 49-01N 002-32E 109M Nov 19, 2017 - 10:30 PM EST / 2017.11.20 0330 UTC
Wind: from the SSW (200 degrees) at 5 MPH (4 KT):0
Visibility: 4 mile(s):0
Sky conditions: mostly cloudy Temperature: 39 F (4 C) Dew Point: 37 F (3 C) Relative Humidity: 93% Pressure (altimeter): 30.21 in. Hg (1023 hPa)
ob: LFPG 200330Z 20004KT 8000 BKN030 BKN260 04/03 Q1023 NOSIG cycle: 3
Sunrise: 07:12 Sunset: 15:59 (UTC)

Athens Eleftherios Venizelos International Airport, Greece (LGAV) 37-56N 023-56E Nov 19, 2017 - 10:20 PM EST / 2017.11.20 0320 UTC
Wind: from the WSW (250 degrees) at 7 MPH (6 KT):0
Visibility: greater than 7 mile(s):0
Sky conditions: mostly cloudy Temperature: 57 F (14 C) Dew Point: 46 F (8 C) Relative Humidity: 67% Pressure (altimeter): 29.77 in. Hg (1008 hPa)
ob: LGAV 200320Z 25006KT 9999 FEW030 BKN060 14/08 Q1008 NOSIG cycle: 3
Sunrise: 05:14 Sunset: 15:05 (UTC)

TAF:2017/11/19 18:12 TAF TAF LGAV 191700Z 1918/2018 28010KT 9999 FEW018 SCT070 PROB40 TEMPO 2009/2016 5000 RA SCT025 BKN050 PROB30 TEMPO 2010/2015 3000 TSRA FEW016CB BKN020 BKN050 BECMG 2005/2007 30010G20KT BECMG 2010/2012 35020G30KT

Previous Pireps for this route
Date Aircraft Flight time Fuel used Landing rate On time
2016-01-18A330-20003.16650000Yes
(pireps marked green are flown by you)

Route map